Time;durP1;ratioP1;P1;durP2;ratioP2;P2;SDS_P1;SDS_P2;PMS_P1;PMS_P2;Temp;Humidity;BMP_temperature;BMP_pressure;BME280_temperature;BME280_humidity;BME280_pressure;Samples;Min_cycle;Max_cycle;Signal;HPM_P1;HPM_P2
2022/04/04 00:01:23;;;;;;;1.47;1.37;;;4.40;99.90;3.80;101823.00;;;;5051048;28;20222;-65
2022/04/04 00:03:48;;;;;;;3.23;1.90;;;4.50;99.90;3.60;101819.00;;;;5033728;28;20183;-65
2022/04/04 00:06:14;;;;;;;2.30;2.10;;;4.50;99.90;3.30;101818.00;;;;5051021;28;20187;-65
2022/04/04 00:08:40;;;;;;;3.70;1.07;;;4.30;99.90;3.00;101814.00;;;;5051103;28;20265;-66
2022/04/04 00:11:06;;;;;;;1.63;1.03;;;4.10;99.90;3.10;101789.00;;;;5050670;28;20293;-66
2022/04/04 00:13:33;;;;;;;0.80;0.77;;;4.10;99.90;3.00;101807.00;;;;5050567;28;20183;-66
2022/04/04 00:15:59;;;;;;;1.13;0.70;;;4.00;99.90;3.10;101805.00;;;;5035276;28;20174;-66
2022/04/04 00:18:25;;;;;;;0.60;0.60;;;4.10;99.90;3.00;101801.00;;;;5049551;28;20179;-66
2022/04/04 00:20:50;;;;;;;2.13;1.93;;;4.10;99.90;3.10;101753.00;;;;5050530;28;20213;-66
2022/04/04 00:23:19;;;;;;;0.70;0.63;;;4.10;99.90;2.90;101805.00;;;;5033903;28;20175;-66
2022/04/04 00:25:48;;;;;;;2.37;2.27;;;4.00;99.90;3.20;101745.00;;;;5032886;28;20190;-66
2022/04/04 00:28:14;;;;;;;0.93;0.73;;;4.00;99.90;2.90;101795.00;;;;5035303;28;20253;-65
2022/04/04 00:30:41;;;;;;;17.57;13.30;;;4.00;99.90;3.00;101784.00;;;;5034972;28;20179;-66
2022/04/04 00:33:07;;;;;;;0.60;0.60;;;4.00;99.90;2.90;101768.00;;;;5032795;28;20210;-66
2022/04/04 00:35:33;;;;;;;2.63;2.43;;;4.00;99.90;3.20;101781.00;;;;5033950;28;20179;-65
2022/04/04 00:38:02;;;;;;;2.07;1.17;;;4.10;99.90;3.00;101727.00;;;;5034903;28;20175;-66
2022/04/04 00:40:28;;;;;;;0.83;0.83;;;4.00;99.90;2.80;101772.00;;;;5034021;28;20695;-65
2022/04/04 00:42:54;;;;;;;0.43;0.43;;;3.90;99.90;2.80;101770.00;;;;5033155;28;20302;-66
2022/04/04 00:45:20;;;;;;;0.30;0.30;;;3.80;99.90;2.70;101771.00;;;;5033719;28;20218;-66
2022/04/04 00:47:48;;;;;;;0.50;0.50;;;3.80;99.90;2.80;101758.00;;;;5033474;28;20677;-66
2022/04/04 00:50:14;;;;;;;0.40;0.40;;;3.80;99.90;2.80;101768.00;;;;5033989;28;20179;-66
2022/04/04 00:52:43;;;;;;;1.07;1.07;;;3.80;99.90;3.50;101762.00;;;;5033401;28;20213;-64
2022/04/04 00:55:10;;;;;;;0.40;0.40;;;4.00;99.90;3.50;101747.00;;;;5031994;28;20174;-65
2022/04/04 00:57:37;;;;;;;0.40;0.40;;;4.10;99.90;3.80;101749.00;;;;5034112;28;20189;-64
2022/04/04 01:00:11;;;;;;;0.40;0.40;;;4.30;99.90;3.90;101742.00;;;;5032200;28;20541;-65
2022/04/04 01:02:39;;;;;;;0.60;0.60;;;4.30;99.90;3.70;101738.00;;;;5032641;28;20191;-64
2022/04/04 01:05:05;;;;;;;1.70;0.90;;;4.30;99.90;3.70;101742.00;;;;5034892;28;20614;-65
2022/04/04 01:07:32;;;;;;;0.73;0.73;;;4.30;99.90;3.60;101724.00;;;;5033889;28;20190;-64
2022/04/04 01:09:58;;;;;;;0.50;0.50;;;4.20;99.90;3.70;101696.00;;;;5033523;28;20512;-65
2022/04/04 01:12:24;;;;;;;4.20;1.57;;;4.20;99.90;4.10;101735.00;;;;5033386;28;20316;-64
2022/04/04 01:14:49;;;;;;;0.40;0.40;;;4.40;99.90;4.00;101712.00;;;;5033994;28;20195;-64
2022/04/04 01:17:25;;;;;;;0.50;0.50;;;4.40;99.90;3.40;101697.00;;;;5032019;28;20545;-64
2022/04/04 01:19:52;;;;;;;0.80;0.80;;;4.20;99.90;3.10;101697.00;;;;5033224;28;20175;-64
2022/04/04 01:22:18;;;;;;;0.40;0.40;;;4.00;99.90;3.50;101702.00;;;;5032318;28;20240;-65
2022/04/04 01:24:45;;;;;;;1.03;0.70;;;4.10;99.90;3.70;101690.00;;;;5032942;28;20179;-65
2022/04/04 01:27:12;;;;;;;0.50;0.50;;;4.30;99.90;3.30;101692.00;;;;5032922;28;20190;-65
2022/04/04 01:29:41;;;;;;;7.30;6.23;;;4.10;99.90;3.30;101682.00;;;;5033498;28;20179;-65
2022/04/04 01:32:10;;;;;;;2.53;1.13;;;4.10;99.90;3.30;101682.00;;;;5015429;28;20214;-65
2022/04/04 01:34:38;;;;;;;0.50;0.50;;;4.10;99.90;3.20;101684.00;;;;5033620;28;20206;-65
2022/04/04 01:37:04;;;;;;;0.40;0.40;;;4.00;99.90;3.20;101682.00;;;;5031084;28;20179;-65
2022/04/04 01:39:30;;;;;;;3.13;2.90;;;3.90;99.90;3.20;101681.00;;;;5032614;28;20232;-65
2022/04/04 01:41:56;;;;;;;0.40;0.40;;;3.90;99.90;3.50;101685.00;;;;5032978;28;20170;-65
2022/04/04 01:44:22;;;;;;;1.20;1.10;;;4.00;99.90;3.40;101662.00;;;;5030955;28;20193;-65
2022/04/04 01:46:48;;;;;;;0.40;0.40;;;4.00;99.90;3.60;101667.00;;;;5031981;28;20619;-65
2022/04/04 01:49:14;;;;;;;0.90;0.90;;;4.10;99.90;3.30;101656.00;;;;5033410;28;20249;-65
2022/04/04 01:51:40;;;;;;;0.40;0.40;;;4.00;99.90;3.30;101661.00;;;;5033449;28;20232;-65
2022/04/04 01:54:06;;;;;;;0.40;0.40;;;4.00;99.90;3.10;101650.00;;;;5033810;28;20614;-65
2022/04/04 01:56:33;;;;;;;0.80;0.80;;;3.90;99.90;3.20;101648.00;;;;5032622;28;20186;-65
2022/04/04 01:58:59;;;;;;;1.03;0.70;;;3.90;99.90;3.30;101643.00;;;;5031495;28;20274;-65
2022/04/04 02:01:27;;;;;;;0.33;0.33;;;3.90;99.90;3.40;101647.00;;;;5033532;28;20276;-65
2022/04/04 02:03:56;;;;;;;1.00;1.00;;;4.00;99.90;3.40;101636.00;;;;5032010;28;20185;-65
2022/04/04 02:06:23;;;;;;;0.40;0.40;;;4.00;99.90;3.60;101629.00;;;;5032157;28;20213;-66
2022/04/04 02:08:50;;;;;;;0.40;0.40;;;4.20;99.90;3.50;101620.00;;;;5033022;28;20638;-66
2022/04/04 02:11:19;;;;;;;0.57;0.57;;;4.10;99.90;3.60;101576.00;;;;5032189;28;20570;-65
2022/04/04 02:13:51;;;;;;;0.50;0.50;;;4.10;99.90;3.20;101613.00;;;;5031989;28;20186;-65
2022/04/04 02:16:19;;;;;;;0.47;0.47;;;4.00;99.90;3.10;101612.00;;;;5032402;28;20159;-65
2022/04/04 02:18:48;;;;;;;0.50;0.50;;;3.90;99.90;3.30;101568.00;;;;5015200;28;20214;-64
2022/04/04 02:21:13;;;;;;;0.40;0.40;;;3.90;99.90;3.20;101601.00;;;;5032072;28;20213;-65
2022/04/04 02:23:39;;;;;;;1.70;1.60;;;3.90;99.90;3.30;101608.00;;;;5031624;28;20560;-65
2022/04/04 02:26:05;;;;;;;0.40;0.40;;;4.00;99.90;3.10;101585.00;;;;5032178;28;20254;-65
2022/04/04 02:28:34;;;;;;;0.40;0.40;;;3.90;99.90;3.20;101560.00;;;;5032176;28;20182;-65
2022/04/04 02:31:01;;;;;;;0.40;0.40;;;3.90;99.90;3.20;101598.00;;;;5031797;28;20182;-65
2022/04/04 02:33:30;;;;;;;0.37;0.37;;;3.90;99.90;3.60;101577.00;;;;5031704;28;20198;-65
2022/04/04 02:35:56;;;;;;;0.40;0.40;;;4.10;99.90;3.60;101588.00;;;;5031903;28;20182;-65
2022/04/04 02:38:24;;;;;;;0.40;0.40;;;4.10;99.90;3.70;101588.00;;;;5015334;28;20552;-66
2022/04/04 02:40:52;;;;;;;0.50;0.50;;;4.30;99.90;3.60;101579.00;;;;5031773;28;20179;-66
2022/04/04 02:43:19;;;;;;;0.40;0.40;;;4.30;99.90;3.90;101577.00;;;;5031017;28;20221;-65
2022/04/04 02:45:50;;;;;;;2.03;1.73;;;4.30;99.90;4.00;101576.00;;;;5031455;28;20194;-63
2022/04/04 02:48:16;;;;;;;1.13;1.13;;;4.40;99.90;3.90;101529.00;;;;5030913;28;20178;-64
2022/04/04 02:50:44;;;;;;;0.70;0.70;;;4.50;99.90;3.50;101552.00;;;;5031257;28;20209;-64
2022/04/04 02:53:10;;;;;;;0.63;0.63;;;4.30;99.90;3.20;101507.00;;;;5029803;28;20265;-65
2022/04/04 02:58:21;;;;;;;1.10;1.10;;;4.20;99.90;4.00;101559.00;;;;5030220;28;20194;-65
2022/04/04 03:00:47;;;;;;;0.97;0.97;;;4.30;99.90;3.80;101546.00;;;;5030483;28;20538;-65
2022/04/04 03:03:13;;;;;;;0.30;0.30;;;4.30;99.90;3.60;101535.00;;;;5031028;28;20175;-65
2022/04/04 03:05:40;;;;;;;0.40;0.40;;;4.30;99.90;3.80;101546.00;;;;5032154;28;20724;-64
2022/04/04 03:08:06;;;;;;;2.00;1.80;;;4.40;99.90;3.40;101531.00;;;;5031056;28;20626;-65
2022/04/04 03:10:34;;;;;;;0.63;0.63;;;4.20;99.90;3.70;101484.00;;;;5048246;28;20179;-65
2022/04/04 03:13:02;;;;;;;1.60;1.60;;;4.20;99.90;3.50;101520.00;;;;5032807;28;20305;-64
2022/04/04 03:15:28;;;;;;;0.30;0.30;;;4.20;99.90;3.60;101515.00;;;;5032461;28;20183;-66
2022/04/04 03:17:56;;;;;;;0.97;0.90;;;4.20;99.90;3.60;101518.00;;;;5031821;28;20664;-65
2022/04/04 03:20:25;;;;;;;0.40;0.40;;;4.30;99.90;3.10;101497.00;;;;5035549;28;20171;-64
2022/04/04 03:22:55;;;;;;;3.10;2.23;;;4.10;99.90;3.60;101503.00;;;;5018560;28;20186;-64
2022/04/04 03:25:21;;;;;;;3.23;3.13;;;4.20;99.90;3.10;101508.00;;;;5018880;28;20542;-64
2022/04/04 03:27:48;;;;;;;0.40;0.40;;;4.00;99.90;3.20;101506.00;;;;5034902;28;20206;-65
2022/04/04 03:30:25;;;;;;;1.33;1.23;;;4.00;99.90;3.10;101450.00;;;;5036324;28;20285;-65
2022/04/04 03:32:54;;;;;;;0.40;0.40;;;4.00;99.90;3.20;101504.00;;;;5036039;28;20210;-65
2022/04/04 03:35:21;;;;;;;0.50;0.50;;;4.10;99.90;3.40;101477.00;;;;5036202;28;20170;-65
2022/04/04 03:37:51;;;;;;;3.30;0.73;;;4.10;99.90;3.60;101422.00;;;;5035020;28;20268;-65
2022/04/04 03:40:19;;;;;;;0.80;0.80;;;4.30;99.90;3.40;101427.00;;;;5036164;28;20231;-65
2022/04/04 03:47:28;;;;;;;0.93;0.93;;;4.20;99.90;3.70;101461.00;;;;5035517;28;20268;-66
2022/04/04 03:49:54;;;;;;;0.30;0.30;;;4.30;99.90;3.90;101450.00;;;;5035587;28;20657;-66
2022/04/04 03:52:20;;;;;;;0.90;0.90;;;4.40;99.90;3.90;101437.00;;;;5035141;28;20199;-66
2022/04/04 03:54:47;;;;;;;0.97;0.83;;;4.50;99.90;3.40;101434.00;;;;5034878;28;20711;-65
2022/04/04 03:57:12;;;;;;;3.70;1.33;;;4.40;99.90;3.80;101429.00;;;;5035798;28;20191;-66
2022/04/04 03:59:39;;;;;;;0.83;0.83;;;4.50;99.90;3.70;101421.00;;;;5035381;28;20175;-65
2022/04/04 04:02:05;;;;;;;1.37;1.27;;;4.50;99.90;3.60;101398.00;;;;5035838;28;20190;-65
2022/04/04 04:04:31;;;;;;;0.50;0.50;;;4.40;99.90;3.70;101417.00;;;;5034523;28;20190;-65
2022/04/04 04:06:59;;;;;;;0.60;0.60;;;4.50;99.90;4.00;101361.00;;;;5035412;28;20171;-66
2022/04/04 04:09:25;;;;;;;0.30;0.30;;;4.70;99.90;4.20;101402.00;;;;5034476;28;20277;-65
2022/04/04 04:11:50;;;;;;;2.30;1.80;;;4.70;99.90;4.20;101399.00;;;;5035751;28;20282;-65
2022/04/04 04:14:16;;;;;;;1.37;1.33;;;4.80;99.90;3.90;101395.00;;;;5035650;28;20221;-65
2022/04/04 04:16:42;;;;;;;2.00;1.37;;;4.70;99.90;4.20;101392.00;;;;5035189;28;20233;-65
2022/04/04 04:20:19;;;;;;;2.83;2.50;;;4.70;99.90;3.70;101394.00;;;;5035317;28;20185;-65
2022/04/04 04:21:56;;;;;;;0.30;0.30;;;4.70;99.90;4.40;101389.00;;;;5034951;28;20233;-65
2022/04/04 04:24:26;;;;;;;0.30;0.30;;;4.80;99.90;4.10;101379.00;;;;5033983;28;20186;-65
2022/04/04 04:26:53;;;;;;;0.57;0.57;;;4.80;99.90;3.90;101350.00;;;;5032672;28;20210;-65
2022/04/04 04:29:20;;;;;;;1.07;1.07;;;4.80;99.90;3.90;101367.00;;;;5033227;28;20570;-65
2022/04/04 04:31:46;;;;;;;0.67;0.67;;;4.70;99.90;4.50;101364.00;;;;5034865;28;20217;-65
2022/04/04 04:34:11;;;;;;;1.80;1.70;;;4.90;99.90;4.20;101362.00;;;;5035738;28;20273;-65
2022/04/04 04:36:39;;;;;;;4.13;2.90;;;4.90;99.90;3.90;101349.00;;;;5035541;28;20189;-65
2022/04/04 04:39:07;;;;;;;1.40;1.30;;;4.80;99.90;3.90;101355.00;;;;5034285;28;20175;-65
2022/04/04 04:41:33;;;;;;;1.43;1.33;;;4.70;99.90;4.10;101345.00;;;;5035014;28;20186;-66
2022/04/04 04:44:02;;;;;;;0.50;0.50;;;4.80;99.90;4.30;101347.00;;;;5030417;28;20184;-66
2022/04/04 04:46:31;;;;;;;0.63;0.63;;;4.90;99.90;4.20;101337.00;;;;5033978;28;20728;-66
2022/04/04 04:49:00;;;;;;;1.27;1.20;;;5.00;99.90;4.30;101345.00;;;;5033724;28;20178;-66
2022/04/04 04:51:27;;;;;;;1.07;1.07;;;5.00;99.90;4.80;101339.00;;;;5035087;28;20202;-66
2022/04/04 04:53:53;;;;;;;0.43;0.43;;;5.20;99.90;4.30;101330.00;;;;5032839;28;20270;-66
2022/04/04 04:56:18;;;;;;;1.27;1.17;;;5.10;99.90;4.50;101326.00;;;;5034478;28;20257;-66
2022/04/04 04:58:44;;;;;;;0.40;0.40;;;5.10;99.90;4.30;101333.00;;;;5033507;28;20201;-65
2022/04/04 05:01:10;;;;;;;0.77;0.77;;;5.10;99.90;4.70;101327.00;;;;5034146;28;20187;-64
2022/04/04 05:03:37;;;;;;;1.03;0.80;;;5.20;99.90;4.20;101310.00;;;;5033147;28;20261;-64
2022/04/04 05:06:03;;;;;;;0.40;0.40;;;5.10;99.90;4.20;101318.00;;;;5032085;28;20183;-64
2022/04/04 05:08:30;;;;;;;1.87;1.77;;;5.00;99.90;4.20;101309.00;;;;5032864;28;20250;-64
2022/04/04 05:10:59;;;;;;;0.40;0.40;;;5.00;99.90;4.40;101311.00;;;;5034743;28;20178;-64
2022/04/04 05:13:28;;;;;;;1.53;1.47;;;5.10;99.90;4.40;101312.00;;;;5033638;28;20187;-65
2022/04/04 05:15:58;;;;;;;0.30;0.30;;;5.10;99.90;4.00;101300.00;;;;5033816;28;20305;-64
2022/04/04 05:18:25;;;;;;;0.33;0.33;;;4.90;99.90;4.70;101267.00;;;;5033319;28;20229;-64
2022/04/04 05:20:51;;;;;;;0.83;0.73;;;5.10;99.90;4.70;101304.00;;;;5033238;28;20240;-63
2022/04/04 05:23:17;;;;;;;0.97;0.47;;;5.30;99.90;4.30;101296.00;;;;5032412;28;20606;-63
2022/04/04 05:25:43;;;;;;;1.00;1.00;;;5.20;99.90;4.20;101291.00;;;;5032527;28;20521;-64
2022/04/04 05:28:10;;;;;;;0.37;0.37;;;5.10;99.90;4.40;101290.00;;;;5049258;28;20178;-63
2022/04/04 05:30:37;;;;;;;0.53;0.50;;;5.10;99.90;4.40;101284.00;;;;5034433;28;20176;-63
2022/04/04 05:33:03;;;;;;;1.40;0.50;;;5.10;99.90;4.20;101282.00;;;;5032211;28;20206;-64
2022/04/04 05:35:29;;;;;;;0.50;0.50;;;5.10;99.90;4.70;101282.00;;;;5034368;28;20240;-64
2022/04/04 05:37:55;;;;;;;0.87;0.67;;;5.30;99.90;4.30;101272.00;;;;5031444;28;20261;-65
2022/04/04 05:40:25;;;;;;;1.10;0.87;;;5.20;99.90;4.40;101264.00;;;;5033823;28;20615;-65
2022/04/04 05:42:51;;;;;;;0.63;0.63;;;5.20;99.90;4.30;101274.00;;;;5031403;28;20412;-64
2022/04/04 05:45:17;;;;;;;0.30;0.30;;;5.20;99.90;4.80;101234.00;;;;5034172;28;20209;-65
2022/04/04 05:47:43;;;;;;;0.40;0.40;;;5.30;99.90;4.90;101259.00;;;;5033338;28;20210;-65
2022/04/04 05:50:09;;;;;;;7.30;2.10;;;5.40;99.90;4.60;101213.00;;;;5033816;28;20654;-65
2022/04/04 05:52:36;;;;;;;3.60;2.17;;;5.40;99.90;5.20;101256.00;;;;5033670;28;20213;-65
2022/04/04 05:55:06;;;;;;;1.93;1.80;;;5.60;99.90;4.70;101246.00;;;;5032152;28;20183;-64
2022/04/04 05:57:38;;;;;;;0.80;0.80;;;5.60;99.90;5.10;101249.00;;;;5031996;28;20179;-65
2022/04/04 06:00:11;;;;;;;0.40;0.40;;;5.70;99.90;5.30;101252.00;;;;5032492;28;20552;-65
2022/04/04 06:02:44;;;;;;;2.20;2.10;;;5.80;99.90;5.10;101250.00;;;;5033554;28;20226;-64
2022/04/04 06:05:11;;;;;;;1.17;1.17;;;5.80;99.90;5.50;101244.00;;;;5032418;28;20180;-65
2022/04/04 06:07:39;;;;;;;0.30;0.30;;;5.90;99.90;5.50;101188.00;;;;5032300;28;20175;-65
2022/04/04 06:10:08;;;;;;;3.23;3.00;;;6.00;99.90;5.50;101236.00;;;;5033536;28;20179;-65
2022/04/04 06:12:37;;;;;;;1.53;1.23;;;6.10;99.90;5.30;101232.00;;;;5033736;28;20214;-65
2022/04/04 06:15:04;;;;;;;0.50;0.50;;;6.10;99.90;5.50;101238.00;;;;5031726;28;20235;-65
2022/04/04 06:17:30;;;;;;;1.47;1.37;;;6.10;99.90;5.80;101217.00;;;;5033464;28;20177;-65
2022/04/04 06:19:56;;;;;;;1.30;1.20;;;6.20;99.90;5.20;101229.00;;;;5047991;28;20277;-65
2022/04/04 06:22:22;;;;;;;0.60;0.50;;;6.10;99.90;5.40;101206.00;;;;5033571;28;20247;-65
2022/04/04 06:24:49;;;;;;;4.47;3.27;;;6.00;99.90;5.60;101209.00;;;;5030689;28;20229;-65
2022/04/04 06:27:18;;;;;;;1.13;0.90;;;6.20;99.90;5.40;101198.00;;;;5032350;28;20195;-65
2022/04/04 06:29:47;;;;;;;0.30;0.30;;;6.10;99.90;5.10;101188.00;;;;5032077;28;20175;-65
2022/04/04 06:32:14;;;;;;;3.40;3.10;;;6.00;99.90;5.10;101154.00;;;;5033037;28;20264;-65
2022/04/04 06:34:40;;;;;;;1.20;1.00;;;6.00;99.90;5.40;101149.00;;;;5015344;28;20554;-65
2022/04/04 06:37:06;;;;;;;1.27;1.03;;;6.00;99.90;5.20;101172.00;;;;5033124;28;20165;-66
2022/04/04 06:39:32;;;;;;;1.90;1.40;;;6.00;99.90;5.30;101158.00;;;;5032999;28;20173;-65
2022/04/04 06:41:58;;;;;;;2.67;1.80;;;6.00;99.90;5.70;101171.00;;;;5033417;28;20175;-65
2022/04/04 06:44:24;;;;;;;0.53;0.53;;;6.20;99.90;5.80;101164.00;;;;5031007;28;20288;-66
2022/04/04 06:46:51;;;;;;;0.70;0.70;;;6.40;99.90;5.40;101166.00;;;;5015400;28;20229;-65
2022/04/04 06:49:17;;;;;;;0.40;0.40;;;6.30;99.90;6.50;101143.00;;;;5032778;28;20180;-65
2022/04/04 06:51:43;;;;;;;1.03;0.93;;;6.70;99.90;6.30;101146.00;;;;5033192;28;20210;-65
2022/04/04 06:54:09;;;;;;;0.30;0.30;;;6.90;99.90;6.00;101112.00;;;;5033157;28;20183;-65
2022/04/04 06:56:35;;;;;;;2.53;1.90;;;6.70;99.90;6.00;101148.00;;;;5037278;28;20181;-65
2022/04/04 06:59:04;;;;;;;0.30;0.30;;;6.80;99.90;6.00;101133.00;;;;5034856;28;20192;-65
2022/04/04 07:01:31;;;;;;;2.17;1.97;;;6.80;99.90;5.90;101137.00;;;;5036982;28;20189;-65
2022/04/04 07:03:58;;;;;;;3.47;3.17;;;6.90;99.90;5.60;101128.00;;;;5052375;28;20213;-65
2022/04/04 07:06:25;;;;;;;3.30;2.57;;;6.70;99.90;6.40;101131.00;;;;5037093;28;20207;-65
2022/04/04 07:08:51;;;;;;;4.20;2.83;;;6.90;99.90;6.20;101125.00;;;;5036431;28;20542;-65
2022/04/04 07:11:17;;;;;;;0.73;0.73;;;7.00;99.90;6.50;101121.00;;;;5036676;28;20645;-66
2022/04/04 07:13:47;;;;;;;0.53;0.53;;;7.10;99.90;6.60;101123.00;;;;5035570;28;20189;-65
2022/04/04 07:16:13;;;;;;;0.70;0.70;;;7.10;99.90;6.50;101074.00;;;;5035167;28;20185;-65
2022/04/04 07:18:39;;;;;;;2.23;0.97;;;7.20;99.90;6.60;101101.00;;;;5035532;28;20881;-65
2022/04/04 07:21:05;;;;;;;0.63;0.60;;;7.30;99.90;6.70;101096.00;;;;5034369;28;20182;-65
2022/04/04 07:23:31;;;;;;;2.70;2.27;;;7.30;99.90;6.20;101093.00;;;;5035233;28;20619;-65
2022/04/04 07:25:57;;;;;;;0.47;0.47;;;7.10;99.90;6.60;101103.00;;;;5035214;28;20188;-65
2022/04/04 07:28:23;;;;;;;1.90;1.60;;;7.30;99.90;6.80;101094.00;;;;5035397;28;20171;-65
2022/04/04 07:30:50;;;;;;;1.07;1.07;;;7.40;99.90;7.20;101058.00;;;;5036125;28;20267;-65
2022/04/04 07:33:18;;;;;;;4.73;2.60;;;7.60;99.90;6.30;101104.00;;;;5034470;28;20217;-65
2022/04/04 07:35:45;;;;;;;2.10;1.90;;;7.40;99.90;6.60;101089.00;;;;5051761;28;20205;-65
2022/04/04 07:38:11;;;;;;;1.60;1.50;;;7.30;99.90;6.70;101080.00;;;;5034491;28;20213;-65
2022/04/04 07:40:38;;;;;;;0.20;0.20;;;7.40;99.90;6.80;101046.00;;;;5034349;28;20269;-65
2022/04/04 07:43:04;;;;;;;1.50;0.70;;;7.40;99.90;7.20;101087.00;;;;5035030;28;20179;-65
2022/04/04 07:45:31;;;;;;;0.57;0.57;;;7.70;99.90;6.90;101076.00;;;;5034923;28;20633;-65
2022/04/04 07:47:58;;;;;;;2.70;2.30;;;7.70;99.90;6.40;101084.00;;;;5035111;28;20214;-65
2022/04/04 07:50:24;;;;;;;2.30;1.77;;;7.50;99.90;6.20;101017.00;;;;5034975;28;20193;-65
2022/04/04 07:52:50;;;;;;;1.67;1.57;;;7.20;99.90;6.50;101067.00;;;;5034527;28;20278;-65
2022/04/04 07:55:16;;;;;;;1.23;1.07;;;7.30;99.90;6.70;101054.00;;;;5034750;28;20631;-66
2022/04/04 07:57:42;;;;;;;3.27;1.90;;;7.40;99.90;6.70;101064.00;;;;5018228;28;20189;-66
2022/04/04 08:00:14;;;;;;;0.37;0.37;;;7.60;99.90;6.60;101012.00;;;;5034786;28;20269;-65
2022/04/04 08:02:41;;;;;;;5.33;3.30;;;7.40;99.90;6.60;101042.00;;;;5035538;28;20194;-66
2022/04/04 08:05:08;;;;;;;3.03;2.07;;;7.60;99.90;6.80;101024.00;;;;5033589;28;20245;-65
2022/04/04 08:07:34;;;;;;;5.33;2.17;;;7.60;99.90;6.60;101040.00;;;;5029883;28;20188;-66
2022/04/04 08:10:00;;;;;;;3.63;2.20;;;7.50;99.90;6.70;101042.00;;;;5034556;28;20212;-66
2022/04/04 08:12:29;;;;;;;1.60;1.30;;;7.60;99.90;6.50;100989.00;;;;5035487;28;20207;-65
2022/04/04 08:14:56;;;;;;;3.87;3.43;;;7.50;99.90;6.70;101035.00;;;;5034627;28;20220;-65
2022/04/04 08:17:22;;;;;;;1.83;1.73;;;7.60;99.90;6.70;101024.00;;;;5034499;28;20271;-65
2022/04/04 08:19:50;;;;;;;3.33;3.03;;;7.50;99.90;6.50;100985.00;;;;5034650;28;20188;-65
2022/04/04 08:22:18;;;;;;;4.50;3.90;;;7.40;99.90;6.80;101027.00;;;;5027516;28;20194;-68
2022/04/04 08:24:48;;;;;;;12.53;3.50;;;7.60;99.90;6.40;100994.00;;;;5033870;28;20238;-66
2022/04/04 08:27:14;;;;;;;5.37;3.50;;;7.40;99.90;6.70;100988.00;;;;5023202;28;20205;-66
2022/04/04 08:29:40;;;;;;;3.90;3.43;;;7.50;99.90;6.70;101029.00;;;;5035420;28;20225;-66
2022/04/04 08:32:07;;;;;;;10.33;5.10;;;7.70;99.90;6.50;101004.00;;;;5035015;28;20246;-64
2022/04/04 08:34:33;;;;;;;6.87;2.60;;;7.40;99.90;6.70;101014.00;;;;5033863;28;20661;-64
2022/04/04 08:37:01;;;;;;;4.07;2.63;;;7.50;99.90;6.50;100986.00;;;;5034740;28;20217;-65
2022/04/04 08:39:28;;;;;;;1.93;1.53;;;7.50;99.90;6.70;101004.00;;;;5033923;28;20200;-66
2022/04/04 08:41:58;;;;;;;8.67;5.53;;;7.60;99.90;6.40;100992.00;;;;5033954;28;20260;-65
2022/04/04 08:44:30;;;;;;;5.13;3.87;;;7.40;99.90;6.90;100951.00;;;;5033936;28;20175;-65
2022/04/04 08:46:57;;;;;;;4.67;4.20;;;7.60;99.90;6.60;100983.00;;;;5034085;28;20629;-65
2022/04/04 08:49:23;;;;;;;5.10;3.63;;;7.60;99.90;6.80;100969.00;;;;5034318;28;20220;-65
2022/04/04 08:51:49;;;;;;;6.57;5.80;;;7.60;99.90;6.50;100934.00;;;;5033376;28;20233;-66
2022/04/04 08:54:15;;;;;;;0.77;0.77;;;7.50;99.90;6.90;100922.00;;;;5028865;28;20217;-67
2022/04/04 08:56:43;;;;;;;3.27;2.37;;;7.60;99.90;6.80;100918.00;;;;5032959;28;20190;-67
2022/04/04 08:59:09;;;;;;;5.17;3.87;;;7.70;99.90;7.20;100978.00;;;;5032766;28;20192;-66
2022/04/04 09:01:35;;;;;;;4.63;3.90;;;7.90;99.90;6.70;100954.00;;;;5030843;28;20192;-66
2022/04/04 09:04:01;;;;;;;1.83;1.73;;;7.70;99.90;6.60;100957.00;;;;5034390;28;20174;-64
2022/04/04 09:06:28;;;;;;;8.33;3.60;;;7.50;99.90;6.40;100961.00;;;;5033722;28;20173;-64
2022/04/04 09:08:56;;;;;;;7.97;5.27;;;7.50;99.90;6.70;100955.00;;;;5031799;28;20276;-64
2022/04/04 09:11:22;;;;;;;6.83;3.33;;;7.50;99.90;6.60;100909.00;;;;5049225;28;20169;-66
2022/04/04 09:14:08;;;;;;;6.83;3.83;;;7.50;99.90;6.50;100956.00;;;;5048264;28;20229;-66
2022/04/04 09:16:38;;;;;;;3.20;2.43;;;7.50;99.90;6.30;100951.00;;;;5046983;28;20191;-66
2022/04/04 09:19:07;;;;;;;5.50;3.73;;;7.30;99.90;6.60;100950.00;;;;5048943;28;20187;-66
2022/04/04 09:21:33;;;;;;;6.77;5.10;;;7.40;99.90;6.40;100929.00;;;;5049084;28;20183;-66
2022/04/04 09:24:09;;;;;;;3.30;2.57;;;7.40;99.90;7.00;100958.00;;;;5048267;28;20282;-66
2022/04/04 09:26:41;;;;;;;8.60;6.53;;;7.60;99.90;6.30;100944.00;;;;5032028;28;20181;-66
2022/04/04 09:29:18;;;;;;;7.53;4.90;;;7.40;99.90;6.60;100944.00;;;;5032422;28;20650;-66
2022/04/04 09:32:05;;;;;;;2.23;1.57;;;7.40;99.90;6.50;100944.00;;;;5031636;28;20217;-66
2022/04/04 09:35:00;;;;;;;8.13;3.67;;;7.40;99.90;6.50;100944.00;;;;5031900;28;20204;-65
2022/04/04 09:37:32;;;;;;;7.67;4.53;;;7.40;99.90;6.60;100938.00;;;;5048335;28;20211;-67
2022/04/04 09:40:09;;;;;;;2.43;1.70;;;7.40;99.90;6.60;100937.00;;;;5032301;28;20161;-66
2022/04/04 09:42:38;;;;;;;7.03;3.37;;;7.40;99.90;6.30;100937.00;;;;5032194;28;20208;-66
2022/04/04 09:45:10;;;;;;;9.13;5.57;;;7.40;99.90;6.60;100951.00;;;;5031899;28;20210;-67
2022/04/04 09:48:08;;;;;;;7.10;4.60;;;7.40;99.90;6.10;100924.00;;;;5031821;28;20665;-68
2022/04/04 09:50:37;;;;;;;6.53;5.93;;;7.10;99.90;6.50;100932.00;;;;5031927;28;20546;-68
2022/04/04 09:53:14;;;;;;;5.70;5.10;;;7.20;99.90;6.20;100948.00;;;;5033008;28;20211;-68
2022/04/04 09:55:45;;;;;;;6.33;5.20;;;7.10;99.90;6.10;100932.00;;;;5033402;28;20201;-68
2022/04/04 09:58:24;;;;;;;3.83;2.57;;;7.00;99.90;6.00;100944.00;;;;5031245;28;20253;-68
2022/04/04 10:00:50;;;;;;;9.93;6.33;;;6.90;99.90;6.00;100932.00;;;;5022608;28;20184;-69
2022/04/04 10:03:23;;;;;;;23.70;4.57;;;6.90;99.90;6.20;100940.00;;;;5044604;28;20249;-68
2022/04/04 10:05:55;;;;;;;4.23;3.37;;;6.90;99.90;6.10;100920.00;;;;5033209;28;20184;-71
2022/04/04 10:08:25;;;;;;;8.80;5.60;;;6.90;99.90;6.60;100929.00;;;;5048595;28;20185;-68
2022/04/04 10:10:51;;;;;;;3.63;2.80;;;7.10;99.90;5.90;100924.00;;;;5032278;28;20169;-68
2022/04/04 10:13:19;;;;;;;9.93;4.63;;;6.90;99.90;6.00;100881.00;;;;5032010;28;20687;-68
2022/04/04 10:15:44;;;;;;;4.63;3.37;;;6.90;99.90;5.90;100920.00;;;;5032161;28;20189;-68
2022/04/04 10:18:11;;;;;;;2.70;2.17;;;6.90;99.90;5.90;100930.00;;;;5032717;28;20184;-68
2022/04/04 10:20:37;;;;;;;6.03;5.43;;;6.80;99.90;5.90;100904.00;;;;5012976;28;20289;-68
2022/04/04 10:33:22;;;;;;;7.27;4.90;;;6.60;99.90;5.70;100903.00;;;;5069982;28;21058;-65
2022/04/04 10:36:04;;;;;;;8.07;4.20;;;6.60;99.90;5.90;100909.00;;;;5050428;28;20652;-66
2022/04/04 10:38:55;;;;;;;1.80;1.70;;;6.70;99.90;6.00;100907.00;;;;5049157;28;20549;-66
2022/04/04 10:41:26;;;;;;;1.33;1.27;;;6.90;99.90;6.20;100904.00;;;;5058227;28;20215;-67
2022/04/04 10:43:54;;;;;;;2.50;2.33;;;6.90;99.90;5.90;100898.00;;;;5050126;28;20191;-67
2022/04/04 10:46:23;;;;;;;2.20;2.00;;;6.80;99.90;6.10;100867.00;;;;5065567;28;20690;-65
2022/04/04 10:48:52;;;;;;;7.40;3.73;;;6.90;99.90;6.10;100902.00;;;;5065865;28;20640;-69
2022/04/04 10:51:34;;;;;;;4.27;3.87;;;6.90;99.90;5.90;100890.00;;;;5065355;28;20745;-69
2022/04/04 10:54:11;;;;;;;5.07;4.03;;;6.80;99.90;6.20;100846.00;;;;5065294;28;20665;-69
2022/04/04 10:56:45;;;;;;;1.70;1.60;;;6.80;99.90;6.00;100899.00;;;;5066068;28;20197;-66
2022/04/04 10:59:20;;;;;;;5.10;3.63;;;6.90;99.90;6.00;100864.00;;;;5065221;28;20167;-67
2022/04/04 11:01:54;;;;;;;2.17;1.93;;;6.80;99.90;5.90;100887.00;;;;5064989;28;20522;-64
2022/04/04 11:04:36;;;;;;;3.80;2.10;;;6.80;99.90;6.00;100873.00;;;;5064833;28;20209;-65
2022/04/04 11:09:55;;;;;;;1.03;1.00;;;6.80;99.90;6.00;100879.00;;;;5049173;28;20222;-66
2022/04/04 11:12:24;;;;;;;2.37;2.00;;;6.80;99.90;6.20;100878.00;;;;5062326;28;20291;-66
2022/04/04 11:15:10;;;;;;;6.10;3.67;;;7.00;99.90;6.20;100872.00;;;;5048555;28;20184;-67
2022/04/04 11:17:57;;;;;;;3.97;3.43;;;6.90;99.90;6.00;100868.00;;;;5048372;28;20565;-66
2022/04/04 11:20:31;;;;;;;1.30;1.20;;;6.90;99.90;6.30;100880.00;;;;5063552;28;20185;-67
2022/04/04 11:23:04;;;;;;;5.00;4.30;;;6.90;99.90;6.00;100849.00;;;;5065021;28;20242;-61
2022/04/04 11:25:37;;;;;;;1.00;1.00;;;6.80;99.90;6.70;100860.00;;;;5047236;28;20188;-69
2022/04/04 11:28:07;;;;;;;2.27;2.07;;;7.10;99.90;6.20;100861.00;;;;5049694;28;20183;-66